This is the latest recevied weather packets stored in our database for station/object N4RCT. If no packets are shown the sender has not sent any weather packets the latest 10 day(s).
| Time | Temp. | Humidity | Pressure | Rain* | Wind** | Luminosity | Snow |
|---|---|---|---|---|---|---|---|
| 1777743159 | 17.78° C | 46% | 1013.6 hPa | 0 mm | - | 869 W/m² | - |
| 1777742857 | 17.78° C | 46% | 1013.6 hPa | 0 mm | - | 662 W/m² | - |
| 1777742553 | 18.33° C | 48% | 1013.8 hPa | 0 mm | - | 707 W/m² | - |
| 1777742249 | 17.78° C | 48% | 1013.7 hPa | 0 mm | - | 772 W/m² | - |
| 1777741946 | 17.22° C | 49% | 1013.6 hPa | 0 mm | - | 555 W/m² | - |
| 1777741643 | 17.22° C | 53% | 1013.9 hPa | 0 mm | - | 526 W/m² | - |
| 1777741340 | 16.67° C | 53% | 1013.7 hPa | 0 mm | - | 502 W/m² | - |
| 1777741036 | 16.67° C | 50% | 1013.9 hPa | 0 mm | - | 499 W/m² | - |
| 1777740733 | 17.22° C | 50% | 1013.8 hPa | 0 mm | - | 439 W/m² | - |
| 1777740429 | 17.78° C | 53% | 1013.8 hPa | 0 mm | - | 498 W/m² | - |
| 1777740127 | 17.22° C | 51% | 1013.5 hPa | 0 mm | - | 423 W/m² | - |
| 1777739822 | 17.22° C | 53% | 1013.8 hPa | 0 mm | - | 443 W/m² | - |
| 1777739519 | 17.22° C | 54% | 1013.9 hPa | 0 mm | - | 400 W/m² | - |
| 1777739216 | 17.78° C | 54% | 1014 hPa | 0 mm | - | 615 W/m² | - |
| 1777738913 | 17.78° C | 54% | 1013.9 hPa | 0 mm | - | 391 W/m² | - |
| 1777738610 | 17.22° C | 51% | 1013.7 hPa | 0 mm | - | 422 W/m² | - |
| 1777738306 | 17.22° C | 52% | 1013.8 hPa | 0 mm | - | 599 W/m² | - |
| 1777738005 | 17.78° C | 52% | 1013.9 hPa | 0 mm | - | 679 W/m² | - |
| 1777737704 | 17.78° C | 54% | 1014.2 hPa | 0 mm | - | 504 W/m² | - |
| 1777737401 | 17.78° C | 52% | 1013.9 hPa | 0 mm | - | 686 W/m² | - |
| 1777737098 | 17.22° C | 55% | 1013.9 hPa | 0 mm | - | 789 W/m² | - |
| 1777736794 | 16.67° C | 52% | 1013.9 hPa | 0 mm | - | 694 W/m² | - |
| 1777736166 | 16.67° C | 53% | 1013.9 hPa | 0 mm | - | 853 W/m² | - |
| 1777735863 | 16.67° C | 52% | 1013.8 hPa | 0 mm | - | 727 W/m² | - |
| 1777735561 | 16.67° C | 56% | 1014.1 hPa | 0 mm | - | 429 W/m² | - |
* Rain latest hour (hover to see other rain measurements)
** Current wind speed in m/s (hover to see current wind gust speed)